Time;durP1;ratioP1;P1;durP2;ratioP2;P2;SDS_P1;SDS_P2;PMS_P1;PMS_P2;Temp;Humidity;BMP_temperature;BMP_pressure;BME280_temperature;BME280_humidity;BME280_pressure;Samples;Min_cycle;Max_cycle;Signal;HPM_P1;HPM_P2
2021/11/12 00:13:12;;;;;;;24.23;15.98;;;;;;;2.70;58.59;99844.08;1765048;81;20906;-35
2021/11/12 00:15:41;;;;;;;26.27;16.23;;;;;;;2.61;58.72;99839.95;1764790;81;20989;-35
2021/11/12 00:18:05;;;;;;;;;;;;;;;2.52;58.95;99834.46;1767455;81;21139;-34
2021/11/12 00:20:32;;;;;;;27.98;16.73;;;;;;;2.48;59.20;99842.83;1765483;79;20092;-34
2021/11/12 00:22:58;;;;;;;25.15;16.10;;;;;;;2.36;59.54;99833.70;1765001;81;20980;-35
2021/11/12 00:25:25;;;;;;;28.27;16.97;;;;;;;2.36;59.59;99832.36;1765109;81;21495;-35
2021/11/12 00:27:53;;;;;;;28.42;17.37;;;;;;;2.36;59.58;99835.03;1793336;79;20986;-35
2021/11/12 00:33:06;;;;;;;28.35;16.87;;;;;;;2.35;59.61;99826.20;1796554;79;20930;-34
2021/11/12 00:35:36;;;;;;;23.90;15.80;;;;;;;2.32;59.69;99822.80;1795664;79;20919;-35
2021/11/12 00:38:17;;;;;;;24.25;14.95;;;;;;;2.31;59.82;99822.54;1795675;79;20967;-34
2021/11/12 00:40:42;;;;;;;27.00;16.48;;;;;;;2.26;59.94;99828.52;1790936;79;20979;-34
2021/11/12 00:45:34;;;;;;;24.52;16.12;;;;;;;2.23;60.18;99819.75;1796601;79;21176;-35
2021/11/12 00:55:27;;;;;;;23.83;16.23;;;;;;;2.17;60.49;99811.80;1796428;79;21121;-34
2021/11/12 00:57:57;;;;;;;27.52;16.82;;;;;;;2.13;60.60;99802.75;1796651;79;20955;-34
2021/11/12 01:00:24;;;;;;;29.55;16.87;;;;;;;2.08;60.76;99804.17;1797122;79;21496;-34
2021/11/12 01:02:52;;;;;;;27.67;17.02;;;;;;;2.06;60.83;99805.56;1796868;79;21028;-34
2021/11/12 01:05:20;;;;;;;29.48;16.95;;;;;;;2.02;61.06;99812.05;1796690;79;21006;-34
2021/11/12 01:07:47;;;;;;;27.75;16.77;;;;;;;2.04;61.15;99810.39;1796688;79;21125;-34
2021/11/12 01:10:14;;;;;;;28.42;17.20;;;;;;;2.03;61.16;99809.59;1796754;79;21418;-34
2021/11/12 01:12:42;;;;;;;25.85;16.77;;;;;;;2.04;61.16;99804.51;1796748;79;21782;-34
2021/11/12 01:15:13;;;;;;;27.60;17.33;;;;;;;2.03;61.28;99801.58;1796822;79;20907;-34
2021/11/12 01:17:40;;;;;;;20.67;13.67;;;;;;;2.04;61.28;99797.82;1790858;79;21014;-34
2021/11/12 01:20:08;;;;;;;29.98;17.12;;;;;;;2.01;61.39;99793.61;1796491;79;21166;-34
2021/11/12 01:22:35;;;;;;;28.30;15.75;;;;;;;1.98;61.50;99793.66;1796817;79;20967;-34
2021/11/12 01:25:07;;;;;;;30.85;17.07;;;;;;;1.96;61.63;99795.03;1796943;79;20954;-34
2021/11/12 01:27:34;;;;;;;26.82;16.65;;;;;;;1.90;61.88;99786.28;1796749;79;21497;-34
2021/11/12 01:30:00;;;;;;;26.00;16.55;;;;;;;1.90;62.08;99785.48;1797020;79;21010;-34
2021/11/12 01:32:27;;;;;;;28.17;18.17;;;;;;;1.86;62.27;99791.17;1796852;79;21479;-34
2021/11/12 01:34:56;;;;;;;26.15;16.82;;;;;;;1.85;62.55;99777.55;1796673;79;20974;-34
2021/11/12 01:37:24;;;;;;;32.20;17.00;;;;;;;1.82;62.80;99777.60;1797134;79;21046;-35
2021/11/12 01:39:55;;;;;;;29.87;16.45;;;;;;;1.80;62.97;99775.75;1811143;79;21026;-34
2021/11/12 01:42:23;;;;;;;25.50;16.52;;;;;;;1.76;63.26;99770.73;1811163;79;20966;-34
2021/11/12 01:44:57;;;;;;;25.85;16.87;;;;;;;1.73;63.41;99768.12;1811213;79;26138;-34
2021/11/12 01:50:11;;;;;;;30.17;17.02;;;;;;;1.66;63.79;99765.55;1811312;79;21662;-34
2021/11/12 01:52:41;;;;;;;24.45;16.65;;;;;;;1.63;63.99;99767.48;1811189;79;21088;-34
2021/11/12 02:00:11;;;;;;;27.73;17.45;;;;;;;1.62;64.43;99770.69;1811216;79;20946;-34
2021/11/12 02:02:38;;;;;;;33.65;17.87;;;;;;;1.62;64.51;99767.22;1811448;79;20974;-35
2021/11/12 02:05:05;;;;;;;30.75;17.60;;;;;;;1.59;64.66;99770.48;1811545;79;21038;-34
2021/11/12 02:07:38;;;;;;;27.67;18.70;;;;;;;1.59;64.66;99769.14;1811362;78;20938;-34
2021/11/12 02:10:14;;;;;;;30.20;18.25;;;;;;;1.56;64.83;99767.03;1811262;79;21139;-35
2021/11/12 02:12:49;;;;;;;28.83;17.90;;;;;;;1.57;64.80;99765.41;1810732;79;20977;-34
2021/11/12 02:15:11;;;;;;;;;;;;;;;1.57;64.73;99761.95;1812682;79;21539;-35
2021/11/12 02:17:43;;;;;;;35.65;18.10;;;;;;;1.55;64.81;99761.46;1811002;78;20149;-34
2021/11/12 02:20:20;;;;;;;32.70;18.73;;;;;;;1.45;65.01;99764.27;1810853;79;21021;-34
2021/11/12 02:22:45;;;;;;;25.70;17.55;;;;;;;1.46;65.04;99756.48;1810586;79;21090;-34
2021/11/12 02:25:25;;;;;;;31.62;17.85;;;;;;;1.51;64.98;99755.08;1805382;79;20946;-34
2021/11/12 02:30:20;;;;;;;31.05;18.60;;;;;;;1.54;64.96;99759.86;1779410;80;21001;-34
2021/11/12 02:32:39;;;;;;;27.32;17.57;;;;;;;1.53;65.15;99758.27;1777704;80;20965;-34
2021/11/12 02:35:07;;;;;;;32.17;18.67;;;;;;;1.53;65.17;99758.27;1725165;80;21187;-34
2021/11/12 02:37:34;;;;;;;33.83;20.50;;;;;;;1.53;65.32;99760.41;1779053;80;21507;-34
2021/11/12 02:40:01;;;;;;;32.20;19.70;;;;;;;1.53;65.37;99756.94;1739792;80;20972;-34
2021/11/12 02:42:28;;;;;;;29.90;18.95;;;;;;;1.53;65.47;99756.39;1739067;82;21479;-34
2021/11/12 02:44:55;;;;;;;29.82;18.07;;;;;;;1.56;65.53;99761.15;1739021;82;21032;-34
2021/11/12 02:47:21;;;;;;;30.70;19.62;;;;;;;1.61;65.67;99762.41;1738908;82;21122;-34
2021/11/12 02:49:51;;;;;;;31.33;20.27;;;;;;;1.64;65.70;99767.73;1739010;82;21669;-34
2021/11/12 02:52:18;;;;;;;30.82;20.02;;;;;;;1.64;65.76;99763.19;1738885;82;21514;-34
2021/11/12 02:54:46;;;;;;;30.95;19.48;;;;;;;1.65;65.92;99761.28;1739067;82;21559;-34
2021/11/12 02:57:12;;;;;;;30.65;19.40;;;;;;;1.69;65.95;99760.98;1739112;82;21068;-34
2021/11/12 02:59:39;;;;;;;32.90;20.88;;;;;;;1.67;66.17;99757.79;1738933;82;21897;-34
2021/11/12 03:02:07;;;;;;;36.60;20.52;;;;;;;1.69;66.21;99751.63;1739061;82;20976;-34
2021/11/12 03:04:36;;;;;;;32.30;20.17;;;;;;;1.69;66.35;99762.31;1739077;82;21302;-34
2021/11/12 03:07:03;;;;;;;33.85;20.12;;;;;;;1.68;66.51;99752.16;1739037;82;21044;-34
2021/11/12 03:09:31;;;;;;;30.23;19.70;;;;;;;1.70;66.60;99766.55;1739385;81;21016;-34
2021/11/12 03:12:01;;;;;;;34.23;20.82;;;;;;;1.68;66.75;99761.52;1739336;82;21041;-34
2021/11/12 03:14:28;;;;;;;30.32;19.92;;;;;;;1.68;66.80;99750.83;1739418;82;20933;-34
2021/11/12 03:16:56;;;;;;;32.28;20.17;;;;;;;1.66;66.96;99746.30;1739086;82;20988;-34
2021/11/12 03:19:26;;;;;;;32.03;20.60;;;;;;;1.67;66.96;99751.11;1738970;82;21644;-34
2021/11/12 03:21:59;;;;;;;33.90;20.80;;;;;;;1.65;67.01;99749.25;1739288;82;23108;-35
2021/11/12 03:24:33;;;;;;;31.13;19.87;;;;;;;1.67;67.07;99750.56;1738807;82;22050;-34
2021/11/12 03:27:08;;;;;;;30.65;20.37;;;;;;;1.65;67.18;99754.06;1737591;81;20945;-34
2021/11/12 03:29:57;;;;;;;35.17;20.15;;;;;;;1.69;67.12;99744.94;1736177;82;21119;-35
2021/11/12 04:03:10;;;;;;;34.55;21.45;;;;;;;1.48;67.66;99747.66;1765644;81;21021;-34
2021/11/12 04:05:12;;;;;;;29.40;20.32;;;;;;;1.41;67.79;99741.87;1751335;81;21494;-35
2021/11/12 04:18:59;;;;;;;35.50;20.97;;;;;;;1.11;68.53;99741.23;1765397;81;21132;-34
2021/11/12 05:11:21;;;;;;;34.73;22.17;;;;;;;0.88;70.51;99763.41;1814793;79;21013;-33
2021/11/12 05:43:50;;;;;;;38.63;25.32;;;;;;;1.22;71.45;99786.73;1819749;78;20983;-34
2021/11/12 05:46:39;;;;;;;41.60;25.50;;;;;;;1.27;71.49;99784.00;1824983;78;20934;-34
2021/11/12 05:51:55;;;;;;;41.08;25.75;;;;;;;1.28;71.72;99777.58;1826318;78;21042;-34
2021/11/12 05:56:55;;;;;;;38.20;24.72;;;;;;;1.37;71.89;99779.59;1826260;78;21039;-33
2021/11/12 05:59:23;;;;;;;41.02;26.48;;;;;;;1.38;72.12;99773.97;1826536;78;20935;-33
2021/11/12 06:01:51;;;;;;;41.20;27.30;;;;;;;1.40;72.16;99777.16;1826058;78;21003;-34
2021/11/12 06:04:21;;;;;;;38.02;25.68;;;;;;;1.45;72.29;99781.64;1825890;78;21034;-34
2021/11/12 06:06:48;;;;;;;40.25;25.37;;;;;;;1.53;72.30;99784.98;1825581;78;21125;-34
2021/11/12 06:09:14;;;;;;;46.70;27.45;;;;;;;1.59;72.18;99783.30;1825856;78;21257;-34
2021/11/12 06:11:42;;;;;;;47.85;27.80;;;;;;;1.24;72.11;99721.82;1825598;78;21050;-34
2021/11/12 06:14:09;;;;;;;42.78;27.70;;;;;;;1.67;72.18;99779.97;1825618;78;20963;-34
2021/11/12 06:16:36;;;;;;;42.30;27.80;;;;;;;1.70;72.37;99779.91;1825653;78;21489;-34
2021/11/12 06:19:03;;;;;;;42.62;26.33;;;;;;;1.76;72.38;99784.10;1825595;78;21093;-34
2021/11/12 06:21:31;;;;;;;32.23;21.37;;;;;;;1.86;72.40;99779.14;1840412;77;20984;-34
2021/11/12 06:23:59;;;;;;;45.80;29.63;;;;;;;1.92;72.44;99776.11;1859005;77;21002;-34
2021/11/12 06:26:26;;;;;;;48.33;27.93;;;;;;;1.95;72.44;99782.20;1859112;77;20999;-34
2021/11/12 06:28:53;;;;;;;41.40;26.97;;;;;;;1.99;72.49;99779.72;1859187;77;21265;-34
2021/11/12 06:31:21;;;;;;;42.93;27.82;;;;;;;2.07;72.37;99789.77;1859260;77;21133;-34
2021/11/12 06:33:49;;;;;;;45.40;29.85;;;;;;;2.17;72.27;99790.41;1858193;77;20959;-34
2021/11/12 06:36:17;;;;;;;44.13;29.98;;;;;;;2.30;72.13;99788.84;1859035;77;20944;-33
2021/11/12 06:38:44;;;;;;;46.23;29.23;;;;;;;2.34;72.11;99786.36;1859293;77;20960;-34
2021/11/12 06:41:14;;;;;;;48.17;30.85;;;;;;;2.37;72.17;99781.78;1859285;77;21059;-34
2021/11/12 06:51:40;;;;;;;44.18;29.20;;;;;;;2.70;72.06;99783.84;1808569;77;21667;-35
2021/11/12 06:54:07;;;;;;;49.18;30.95;;;;;;;2.74;72.07;99785.63;1815764;78;21016;-34
2021/11/12 06:56:33;;;;;;;50.78;30.35;;;;;;;2.77;72.16;99790.38;1828716;78;21091;-34
2021/11/12 06:59:00;;;;;;;47.83;29.42;;;;;;;2.83;72.19;99779.83;1828799;78;20976;-34
2021/11/12 07:01:30;;;;;;;47.30;30.68;;;;;;;2.98;72.10;99780.07;1828705;78;20945;-35
2021/11/12 07:03:57;;;;;;;47.62;31.12;;;;;;;3.13;71.93;99781.64;1829016;78;20933;-34
2021/11/12 07:06:24;;;;;;;48.05;31.55;;;;;;;3.21;71.89;99780.93;1828986;78;20952;-34
2021/11/12 07:08:52;;;;;;;48.08;30.40;;;;;;;3.30;71.88;99782.59;1828822;78;21074;-34
2021/11/12 07:11:21;;;;;;;47.43;29.87;;;;;;;3.39;71.70;99782.13;1828877;78;21047;-34
2021/11/12 07:13:49;;;;;;;46.63;30.68;;;;;;;3.51;71.63;99776.25;1828852;78;20992;-34
2021/11/12 07:16:16;;;;;;;45.30;30.72;;;;;;;3.68;71.29;99775.62;1828811;78;21027;-34
2021/11/12 07:18:44;;;;;;;51.80;32.35;;;;;;;3.81;71.01;99786.29;1823100;78;21000;-34
2021/11/12 07:21:14;;;;;;;50.48;33.02;;;;;;;3.92;70.74;99782.25;1828804;78;21061;-34
2021/11/12 07:23:41;;;;;;;50.43;32.80;;;;;;;4.03;70.60;99782.01;1828966;78;20975;-34
2021/11/12 07:26:08;;;;;;;52.58;32.35;;;;;;;4.14;70.52;99779.33;1828563;78;21514;-34
2021/11/12 07:28:35;;;;;;;42.70;30.68;;;;;;;4.28;70.20;99784.06;1828858;78;21557;-34
2021/11/12 07:31:02;;;;;;;49.25;31.37;;;;;;;4.45;69.63;99774.78;1828592;78;20965;-34
2021/11/12 07:33:30;;;;;;;54.93;34.63;;;;;;;4.61;69.24;99784.00;1828785;78;21302;-34
2021/11/12 07:39:00;;;;;;;50.05;32.33;;;;;;;4.87;68.46;99777.39;1828627;78;20971;-35
2021/11/12 07:44:14;;;;;;;50.03;32.83;;;;;;;5.13;67.58;99790.91;1804423;78;21075;-34
2021/11/12 07:46:41;;;;;;;46.75;32.65;;;;;;;5.29;67.16;99779.94;1827821;78;21121;-34
2021/11/12 07:49:08;;;;;;;48.08;31.87;;;;;;;5.41;67.08;99780.69;1828406;78;20992;-34
2021/11/12 07:51:36;;;;;;;46.58;31.87;;;;;;;5.56;66.82;99785.05;1828690;78;21549;-34
2021/11/12 07:54:03;;;;;;;51.08;34.65;;;;;;;5.70;66.37;99787.59;1840789;76;21566;-34
2021/11/12 07:56:30;;;;;;;46.48;32.95;;;;;;;5.79;66.01;99788.92;1859147;77;21040;-34
2021/11/12 07:58:57;;;;;;;49.95;33.88;;;;;;;5.92;65.83;99797.41;1859006;77;21113;-34
2021/11/12 08:01:25;;;;;;;52.45;34.25;;;;;;;6.07;65.65;99794.23;1859168;77;21020;-35
2021/11/12 08:03:57;;;;;;;49.40;34.53;;;;;;;6.26;65.25;99789.84;1859257;77;21007;-34
2021/11/12 08:06:27;;;;;;;51.18;34.00;;;;;;;6.44;65.07;99785.99;1859025;77;21487;-34
2021/11/12 08:09:06;;;;;;;49.30;34.78;;;;;;;6.64;64.31;99781.81;1859273;77;21012;-34
2021/11/12 08:11:37;;;;;;;50.25;35.78;;;;;;;6.79;63.85;99779.94;1859018;77;22455;-34
2021/11/12 08:19:34;;;;;;;48.55;34.53;;;;;;;7.20;63.00;99786.80;1859269;77;20995;-34
2021/11/12 08:22:02;;;;;;;51.05;36.48;;;;;;;7.36;62.36;99785.64;1858081;77;21016;-35
2021/11/12 08:24:40;;;;;;;57.15;36.38;;;;;;;7.48;62.26;99787.64;1857996;77;21213;-34
2021/11/12 08:27:31;;;;;;;48.35;34.73;;;;;;;7.58;62.05;99790.75;1843889;77;21522;-34
2021/11/12 08:29:56;;;;;;;50.67;35.40;;;;;;;7.73;61.50;99797.46;1852783;77;20932;-35
2021/11/12 08:32:39;;;;;;;53.38;36.95;;;;;;;7.86;61.25;99794.49;1857260;77;21551;-34
2021/11/12 08:40:25;;;;;;;51.90;37.30;;;;;;;8.26;59.72;99792.63;1858951;77;21098;-35
2021/11/12 08:45:26;;;;;;;53.23;37.53;;;;;;;8.37;59.47;99793.03;1858974;77;20905;-35
2021/11/12 08:47:52;;;;;;;54.23;37.48;;;;;;;8.43;59.41;99794.38;1857353;77;21047;-34
2021/11/12 08:50:18;;;;;;;55.10;37.63;;;;;;;8.53;59.35;99777.17;1858362;77;21167;-35
2021/11/12 08:52:47;;;;;;;52.08;36.17;;;;;;;8.68;59.45;99785.19;1858989;77;20983;-35
2021/11/12 08:55:15;;;;;;;52.33;35.48;;;;;;;8.88;58.45;99794.34;1848775;77;20952;-35
2021/11/12 08:57:42;;;;;;;49.75;35.08;;;;;;;9.01;58.26;99804.81;1845649;77;20921;-34
2021/11/12 09:00:10;;;;;;;55.17;36.35;;;;;;;9.16;57.72;99796.03;1845519;77;20983;-35
2021/11/12 09:02:39;;;;;;;50.45;35.98;;;;;;;9.28;57.07;99793.09;1845690;77;21887;-35
2021/11/12 09:05:07;;;;;;;49.55;34.03;;;;;;;9.33;57.07;99784.75;1845932;77;20905;-35
2021/11/12 09:07:34;;;;;;;47.23;35.23;;;;;;;9.32;57.02;99787.23;1845868;77;21440;-35
2021/11/12 09:10:02;;;;;;;52.00;35.55;;;;;;;9.29;57.08;99785.21;1845703;77;20983;-35
2021/11/12 09:12:30;;;;;;;50.27;34.37;;;;;;;9.21;56.88;99790.95;1845991;77;20944;-35
2021/11/12 09:14:58;;;;;;;49.13;35.68;;;;;;;9.07;57.16;99794.01;1845892;77;21127;-35
2021/11/12 09:17:30;;;;;;;46.92;34.18;;;;;;;8.95;57.53;99789.97;1845537;77;20897;-35
2021/11/12 09:19:58;;;;;;;46.98;33.95;;;;;;;8.85;57.99;99800.43;1845586;77;21527;-34
2021/11/12 09:22:31;;;;;;;52.40;35.33;;;;;;;8.77;58.34;99794.55;1845637;77;21468;-34
2021/11/12 09:24:56;;;;;;;46.58;31.42;;;;;;;8.69;58.86;99792.98;1845437;77;21511;-34
2021/11/12 09:27:23;;;;;;;44.73;29.30;;;;;;;8.66;60.40;99800.41;1845672;77;21515;-34
2021/11/12 09:29:50;;;;;;;37.80;27.42;;;;;;;8.59;61.05;99789.35;1845600;77;21035;-35
2021/11/12 09:32:19;;;;;;;39.78;28.42;;;;;;;8.56;61.58;99791.39;1845682;77;21064;-34
2021/11/12 09:34:46;;;;;;;39.38;28.38;;;;;;;8.56;61.64;99789.24;1845559;77;21012;-34
2021/11/12 09:37:22;;;;;;;41.75;28.70;;;;;;;8.57;61.60;99785.39;1845492;77;21036;-34
2021/11/12 09:39:56;;;;;;;43.00;29.63;;;;;;;8.58;62.04;99787.77;1845682;77;21934;-35
2021/11/12 09:42:30;;;;;;;41.08;29.35;;;;;;;8.58;61.89;99781.57;1845879;77;20972;-34
2021/11/12 09:45:03;;;;;;;41.83;28.02;;;;;;;8.56;62.12;99787.33;1845823;77;21528;-35
2021/11/12 09:47:30;;;;;;;42.55;27.20;;;;;;;8.58;62.08;99781.57;1839303;77;20949;-34
2021/11/12 09:50:00;;;;;;;37.15;26.42;;;;;;;8.56;62.32;99780.58;1817787;77;21258;-34
2021/11/12 09:52:29;;;;;;;36.35;26.12;;;;;;;8.62;62.33;99778.42;1846031;77;21775;-34
2021/11/12 09:54:56;;;;;;;36.38;26.73;;;;;;;8.69;62.10;99778.67;1852527;77;20948;-34
2021/11/12 09:57:22;;;;;;;35.13;24.95;;;;;;;8.73;62.03;99782.27;1859235;77;21027;-34
2021/11/12 09:59:55;;;;;;;35.45;25.80;;;;;;;8.80;62.02;99780.37;1859242;77;20901;-34
2021/11/12 10:02:23;;;;;;;39.20;26.97;;;;;;;8.92;61.99;99771.69;1859304;77;21503;-34
2021/11/12 10:04:50;;;;;;;34.45;25.85;;;;;;;9.09;61.37;99774.74;1859100;77;21767;-35
2021/11/12 10:07:18;;;;;;;35.85;25.45;;;;;;;9.33;60.98;99780.69;1858813;77;21021;-35
2021/11/12 10:09:48;;;;;;;34.85;26.30;;;;;;;9.57;60.97;99776.59;1859200;77;20981;-35
2021/11/12 10:12:14;;;;;;;35.43;24.92;;;;;;;9.79;60.23;99773.35;1859052;77;20979;-35
2021/11/12 10:14:51;;;;;;;33.02;23.00;;;;;;;9.90;59.83;99782.58;1859134;77;21028;-34
2021/11/12 10:17:12;;;;;;;31.40;22.02;;;;;;;9.97;59.88;99777.34;1858005;77;21352;-35
2021/11/12 10:19:46;;;;;;;31.68;22.60;;;;;;;9.96;60.32;99768.23;1859090;77;21582;-35
2021/11/12 10:22:14;;;;;;;29.57;20.95;;;;;;;9.91;60.74;99771.97;1859199;77;21008;-35
2021/11/12 10:24:42;;;;;;;28.20;20.23;;;;;;;9.86;61.18;99772.21;1859121;77;21000;-35
2021/11/12 10:27:17;;;;;;;28.35;20.43;;;;;;;9.90;61.52;99779.86;1859521;77;26760;-35
2021/11/12 10:29:51;;;;;;;28.67;21.35;;;;;;;9.96;61.44;99773.64;1859350;77;21053;-35
2021/11/12 10:32:28;;;;;;;30.45;22.45;;;;;;;10.04;61.25;99777.55;1859179;77;21002;-35
2021/11/12 10:35:02;;;;;;;29.63;21.97;;;;;;;10.04;61.08;99782.17;1859205;77;20904;-35
2021/11/12 10:37:30;;;;;;;31.30;22.58;;;;;;;10.06;61.15;99787.26;1858697;77;21006;-34
2021/11/12 10:40:04;;;;;;;32.05;23.00;;;;;;;10.03;61.13;99781.38;1853127;77;21024;-34
2021/11/12 10:42:33;;;;;;;28.67;21.35;;;;;;;10.04;61.09;99782.17;1858856;77;20967;-35
2021/11/12 10:45:21;;;;;;;38.20;22.82;;;;;;;10.07;60.90;99776.66;1859198;77;21063;-35
2021/11/12 10:47:56;;;;;;;27.00;20.23;;;;;;;10.02;60.88;99766.85;1856028;77;20946;-34
2021/11/12 10:50:29;;;;;;;33.00;22.13;;;;;;;9.92;61.24;99766.75;1859058;77;20952;-35
2021/11/12 10:53:00;;;;;;;33.50;22.50;;;;;;;9.90;61.48;99768.24;1858748;77;20996;-35
2021/11/12 10:55:27;;;;;;;32.53;21.70;;;;;;;9.94;61.45;99768.56;1851296;77;21131;-34
2021/11/12 10:58:06;;;;;;;30.02;21.87;;;;;;;10.02;61.39;99777.09;1845684;77;20956;-35
2021/11/12 11:00:45;;;;;;;29.60;21.37;;;;;;;10.12;61.27;99769.03;1845683;77;21009;-35
2021/11/12 11:03:22;;;;;;;31.62;23.00;;;;;;;10.27;61.06;99768.88;1839903;77;21459;-35
2021/11/12 11:05:58;;;;;;;32.73;22.00;;;;;;;10.42;60.61;99769.48;1845805;77;21545;-35
2021/11/12 11:08:34;;;;;;;31.42;22.07;;;;;;;10.59;60.11;99780.00;1845798;77;21068;-35
2021/11/12 11:11:04;;;;;;;29.57;19.42;;;;;;;10.73;59.76;99776.29;1845618;77;21001;-35
2021/11/12 11:13:33;;;;;;;25.05;18.25;;;;;;;10.86;59.44;99776.41;1845032;77;20968;-35
2021/11/12 11:16:05;;;;;;;27.58;19.45;;;;;;;10.93;59.06;99769.02;1846068;77;20935;-35
2021/11/12 11:18:41;;;;;;;25.97;19.30;;;;;;;10.94;59.06;99775.23;1845896;77;21021;-35
2021/11/12 11:21:25;;;;;;;29.42;19.65;;;;;;;10.90;59.06;99774.56;1845501;77;21100;-35
2021/11/12 11:24:00;;;;;;;25.72;19.27;;;;;;;10.85;58.92;99770.76;1843951;77;20992;-35
2021/11/12 11:26:46;;;;;;;25.15;18.80;;;;;;;10.78;58.99;99767.89;1845979;77;21498;-35
2021/11/12 11:29:22;;;;;;;27.50;19.80;;;;;;;10.68;59.25;99771.13;1845734;77;20866;-35
2021/11/12 11:31:54;;;;;;;26.40;20.05;;;;;;;10.61;59.48;99769.58;1845923;77;21016;-35
2021/11/12 11:34:26;;;;;;;28.20;20.12;;;;;;;10.62;59.58;99775.80;1845933;77;21123;-35
2021/11/12 11:36:59;;;;;;;27.27;19.73;;;;;;;10.64;59.40;99759.97;1845485;77;21008;-35
2021/11/12 11:39:26;;;;;;;31.15;20.05;;;;;;;10.63;59.42;99767.31;1845662;77;20996;-35
2021/11/12 11:41:52;;;;;;;28.45;19.98;;;;;;;10.67;59.44;99761.41;1846011;77;21048;-36
2021/11/12 11:44:20;;;;;;;27.05;20.20;;;;;;;10.72;59.20;99767.14;1845478;77;21048;-35
2021/11/12 11:46:50;;;;;;;27.67;20.62;;;;;;;10.71;59.31;99764.99;1846102;77;21084;-35
2021/11/12 11:49:22;;;;;;;30.95;21.20;;;;;;;10.70;59.31;99762.05;1845691;77;21582;-36
2021/11/12 11:51:59;;;;;;;28.85;21.10;;;;;;;10.75;59.25;99758.30;1844522;77;20944;-35
2021/11/12 11:54:29;;;;;;;27.05;21.23;;;;;;;10.79;59.12;99761.34;1845662;77;21051;-36
2021/11/12 11:56:58;;;;;;;23.62;16.17;;;;;;;10.77;59.01;99760.89;1826553;77;20993;-35
2021/11/12 11:59:35;;;;;;;26.73;19.62;;;;;;;10.77;59.06;99767.66;1859445;77;21109;-36
2021/11/12 12:02:08;;;;;;;23.15;17.15;;;;;;;10.81;59.47;99771.81;1859121;77;20917;-35
2021/11/12 12:04:51;;;;;;;18.55;15.53;;;;;;;10.86;59.69;99769.62;1858835;77;21463;-35
2021/11/12 12:07:23;;;;;;;22.37;16.30;;;;;;;10.90;59.83;99773.77;1825926;77;20968;-35
2021/11/12 12:09:59;;;;;;;24.57;17.15;;;;;;;10.90;59.92;99765.64;1858589;77;21016;-35
2021/11/12 12:12:37;;;;;;;25.15;17.25;;;;;;;10.90;59.93;99769.70;1859027;77;21766;-35
2021/11/12 12:15:16;;;;;;;23.42;17.07;;;;;;;10.89;60.08;99772.98;1858900;77;20952;-35
2021/11/12 12:17:47;;;;;;;24.05;17.65;;;;;;;10.88;59.88;99779.57;1859105;77;21502;-35
2021/11/12 13:25:58;;;;;;;25.95;18.98;;;;;;;9.99;61.82;99805.45;1859058;77;20991;-36
2021/11/12 13:28:40;;;;;;;26.50;19.60;;;;;;;10.06;61.78;99810.28;1857506;77;20985;-37
2021/11/12 13:31:18;;;;;;;26.90;19.92;;;;;;;10.06;61.76;99811.64;1859410;77;20975;-36
2021/11/12 13:33:51;;;;;;;25.37;18.80;;;;;;;10.00;61.81;99810.53;1859415;77;21601;-37
2021/11/12 13:36:37;;;;;;;27.35;19.55;;;;;;;9.96;61.91;99812.35;1859337;77;21130;-36
2021/11/12 13:39:19;;;;;;;26.73;18.32;;;;;;;9.92;61.89;99810.08;1826142;77;21039;-36
2021/11/12 13:41:55;;;;;;;26.97;18.75;;;;;;;9.86;62.05;99819.60;1859192;77;21000;-37
2021/11/12 13:44:24;;;;;;;25.25;18.87;;;;;;;9.80;62.10;99818.26;1859254;77;20956;-36
2021/11/12 13:47:02;;;;;;;27.75;19.60;;;;;;;9.73;62.21;99823.45;1859781;77;20996;-36
2021/11/12 13:49:48;;;;;;;25.77;18.37;;;;;;;9.71;62.24;99820.88;1859225;77;21118;-36
2021/11/12 13:52:28;;;;;;;26.55;19.10;;;;;;;9.72;62.25;99824.61;1859545;77;20912;-36
2021/11/12 13:55:07;;;;;;;28.15;19.32;;;;;;;9.73;62.29;99834.28;1859235;77;20952;-36
2021/11/12 13:57:34;;;;;;;25.02;18.17;;;;;;;9.70;62.36;99834.19;1862948;77;21443;-37
2021/11/12 14:00:11;;;;;;;25.75;19.27;;;;;;;9.68;62.41;99832.40;1862954;77;20976;-36
2021/11/12 14:03:06;;;;;;;25.95;18.95;;;;;;;9.66;62.47;99834.65;1863087;77;21108;-36
2021/11/12 14:05:36;;;;;;;26.45;18.62;;;;;;;9.65;62.47;99835.21;1862893;76;21491;-36
2021/11/12 14:08:12;;;;;;;29.45;20.05;;;;;;;9.63;62.45;99829.37;1862790;76;20909;-36
2021/11/12 14:10:47;;;;;;;29.15;19.10;;;;;;;9.60;62.49;99836.23;1862711;77;20990;-37
2021/11/12 14:13:18;;;;;;;25.30;18.12;;;;;;;9.55;62.63;99837.82;1862240;77;21020;-36
2021/11/12 14:16:09;;;;;;;24.87;18.20;;;;;;;9.55;62.75;99842.44;1862321;77;21315;-36
2021/11/12 14:18:59;;;;;;;25.57;17.85;;;;;;;9.52;62.79;99841.22;1861563;77;20976;-37
2021/11/12 14:26:48;;;;;;;24.75;17.62;;;;;;;9.39;63.26;99846.98;1862904;77;21655;-36
2021/11/12 14:29:16;;;;;;;21.35;12.95;;;;;;;9.30;63.41;99858.47;1860834;77;21193;-36
2021/11/12 14:31:58;;;;;;;25.10;18.12;;;;;;;9.30;63.59;99859.25;1862178;77;21008;-36
2021/11/12 14:36:56;;;;;;;29.95;19.10;;;;;;;9.24;63.71;99861.19;1862528;77;21521;-36
2021/11/12 14:42:30;;;;;;;26.35;18.62;;;;;;;9.23;63.73;99860.95;1862720;77;21109;-35
2021/11/12 14:45:42;;;;;;;29.30;19.82;;;;;;;9.16;63.84;99865.01;1858748;77;21493;-36
2021/11/12 14:47:39;;;;;;;31.75;20.30;;;;;;;9.05;64.01;99863.86;1834704;77;20954;-36
2021/11/12 14:50:08;;;;;;;32.88;20.08;;;;;;;8.97;64.13;99867.47;1861513;77;21055;-36
2021/11/12 14:52:29;;;;;;;29.40;20.35;;;;;;;8.93;64.27;99866.56;1861469;77;21020;-36
2021/11/12 14:55:07;;;;;;;30.62;20.52;;;;;;;8.86;64.47;99870.37;1862827;77;21100;-35
2021/11/12 14:57:41;;;;;;;26.50;18.40;;;;;;;8.77;64.66;99883.19;1850000;76;22085;-35
2021/11/12 15:00:11;;;;;;;26.00;18.52;;;;;;;8.75;64.84;99881.41;1847991;77;20928;-36
2021/11/12 15:02:40;;;;;;;27.07;19.20;;;;;;;8.73;64.89;99889.84;1848806;77;20963;-36
2021/11/12 15:05:09;;;;;;;26.00;18.70;;;;;;;8.69;64.95;99888.14;1848773;77;20961;-35
2021/11/12 15:07:52;;;;;;;30.05;19.48;;;;;;;8.66;65.04;99890.17;1849040;77;21115;-36
2021/11/12 15:10:17;;;;;;;29.50;20.62;;;;;;;8.62;65.06;99895.42;1847528;77;21000;-35
2021/11/12 15:12:49;;;;;;;28.52;20.45;;;;;;;8.55;65.18;99894.41;1848742;77;20980;-35
2021/11/12 15:15:12;;;;;;;28.80;19.57;;;;;;;8.46;65.34;99906.64;1847985;77;20936;-36
2021/11/12 15:17:41;;;;;;;27.25;19.50;;;;;;;8.37;65.55;99902.44;1848615;77;21012;-36
2021/11/12 15:20:09;;;;;;;23.22;17.98;;;;;;;8.32;65.63;99906.69;1848595;77;21113;-36
2021/11/12 15:25:21;;;;;;;29.25;20.00;;;;;;;8.33;65.59;99913.09;1848410;77;20975;-35
2021/11/12 15:30:29;;;;;;;29.67;19.67;;;;;;;8.26;65.33;99924.42;1823226;78;21077;-35
2021/11/12 15:32:58;;;;;;;33.88;21.55;;;;;;;8.18;65.36;99925.26;1822987;78;21177;-36
2021/11/12 15:35:25;;;;;;;33.38;21.97;;;;;;;8.12;65.42;99929.30;1822920;78;21069;-35
2021/11/12 15:38:00;;;;;;;33.02;22.48;;;;;;;8.06;65.64;99933.30;1823344;78;21189;-36
2021/11/12 15:40:34;;;;;;;28.02;20.27;;;;;;;8.01;65.83;99932.14;1823119;78;20973;-36
2021/11/12 15:43:11;;;;;;;34.30;21.48;;;;;;;8.06;65.92;99940.61;1823327;78;21512;-36
2021/11/12 16:01:17;;;;;;;32.28;21.90;;;;;;;7.99;66.47;99960.61;1769783;78;21612;-36
2021/11/12 16:13:45;;;;;;;36.50;23.32;;;;;;;8.08;66.60;99972.94;1763633;78;21520;-36
2021/11/12 16:16:36;;;;;;;34.75;22.30;;;;;;;8.06;66.72;99974.36;1825050;78;20947;-36
2021/11/12 16:18:51;;;;;;;30.97;21.90;;;;;;;8.04;66.77;99978.73;1820376;78;21328;-36
2021/11/12 16:26:29;;;;;;;33.13;23.32;;;;;;;8.14;66.63;99981.05;1836315;77;21047;-36
2021/11/12 16:31:35;;;;;;;31.60;22.10;;;;;;;8.08;66.44;99990.48;1859276;77;20144;-36
2021/11/12 16:34:05;;;;;;;31.40;22.13;;;;;;;7.91;66.49;99985.17;1858913;77;21016;-36
2021/11/12 16:36:29;;;;;;;37.98;24.25;;;;;;;7.85;66.51;99989.95;1858120;77;21213;-36
2021/11/12 16:38:58;;;;;;;33.95;22.32;;;;;;;7.81;66.51;99992.28;1858854;77;21004;-36
2021/11/12 16:41:29;;;;;;;31.20;21.85;;;;;;;7.80;66.53;99994.75;1826701;77;20913;-35
2021/11/12 16:49:28;;;;;;;34.23;23.22;;;;;;;7.82;66.21;99995.23;1858973;77;21072;-36